createdAt,value
2022-08-17T00:01:45.534Z,3.42
2022-08-17T00:04:19.766Z,2.92
2022-08-17T00:06:49.059Z,3.10
2022-08-17T00:09:18.736Z,2.80
2022-08-17T00:12:03.928Z,2.65
2022-08-17T00:17:00.639Z,3.33
2022-08-17T00:19:27.599Z,3.00
2022-08-17T00:22:31.501Z,3.10
2022-08-17T00:24:44.120Z,3.35
2022-08-17T00:27:10.654Z,2.88
2022-08-17T00:29:37.340Z,3.25
2022-08-17T00:33:15.648Z,3.25
2022-08-17T00:34:50.830Z,3.38
2022-08-17T00:37:17.383Z,3.30
2022-08-17T00:39:44.578Z,3.25
2022-08-17T00:42:19.033Z,4.22
2022-08-17T00:44:46.073Z,4.20
2022-08-17T00:47:12.655Z,3.35
2022-08-17T00:49:39.520Z,2.58
2022-08-17T00:52:15.309Z,3.25
2022-08-17T00:54:45.268Z,3.47
2022-08-17T00:57:18.329Z,3.22
2022-08-17T01:00:02.691Z,3.30
2022-08-17T01:02:34.417Z,3.38
2022-08-17T01:05:12.736Z,3.03
2022-08-17T01:07:40.061Z,3.05
2022-08-17T01:10:57.628Z,4.03
2022-08-17T01:13:02.459Z,2.83
2022-08-17T01:15:36.388Z,3.17
2022-08-17T01:18:07.772Z,3.35
2022-08-17T01:20:41.899Z,3.75
2022-08-17T01:23:20.478Z,3.50
2022-08-17T01:25:51.082Z,3.22
2022-08-17T01:28:36.498Z,3.28
2022-08-17T01:31:08.083Z,3.20
2022-08-17T01:33:35.278Z,4.05
2022-08-17T01:36:03.583Z,3.13
2022-08-17T01:38:31.803Z,3.20
2022-08-17T01:41:06.862Z,3.70
2022-08-17T01:43:48.112Z,3.10
2022-08-17T01:46:23.197Z,3.53
2022-08-17T01:48:51.476Z,3.33
2022-08-17T01:51:18.401Z,3.90
2022-08-17T01:53:49.579Z,3.75
2022-08-17T01:56:21.392Z,3.50
2022-08-17T01:58:48.773Z,3.55
2022-08-17T02:01:20.668Z,3.53
2022-08-17T02:03:59.574Z,3.53
2022-08-17T02:06:31.321Z,2.88
2022-08-17T02:09:02.271Z,3.03
2022-08-17T02:11:32.348Z,3.78
2022-08-17T02:14:03.495Z,4.22
2022-08-17T02:16:37.621Z,3.58
2022-08-17T02:19:12.658Z,3.15
2022-08-17T02:21:41.664Z,2.88
2022-08-17T02:24:11.740Z,3.38
2022-08-17T02:26:38.374Z,3.47
2022-08-17T02:29:04.984Z,3.50
2022-08-17T02:31:31.767Z,3.38
2022-08-17T02:34:03.874Z,3.13
2022-08-17T02:36:35.535Z,2.97
2022-08-17T02:39:08.696Z,3.15
2022-08-17T03:20:31.778Z,3.97
2022-08-17T03:23:01.787Z,3.80
2022-08-17T03:25:41.248Z,4.57
2022-08-17T03:28:11.949Z,5.13
2022-08-17T03:33:09.954Z,3.72
2022-08-17T03:35:40.372Z,3.70
2022-08-17T03:38:08.763Z,4.20
2022-08-17T03:43:22.900Z,3.83
2022-08-17T03:46:27.138Z,4.18
2022-08-17T03:49:14.107Z,4.45
2022-08-17T03:51:59.465Z,3.90
2022-08-17T03:54:44.767Z,3.97
2022-08-17T03:57:12.486Z,4.70
2022-08-17T03:59:39.711Z,4.07
2022-08-17T04:02:16.355Z,4.32
2022-08-17T04:04:42.949Z,3.90
2022-08-17T04:07:09.645Z,4.45
2022-08-17T04:09:36.608Z,4.07
2022-08-17T04:12:04.743Z,4.57
2022-08-17T04:17:20.518Z,3.27
2022-08-17T04:19:47.169Z,3.72
2022-08-17T04:22:32.918Z,3.92
2022-08-17T04:25:04.602Z,4.05
2022-08-17T04:27:31.161Z,3.72
2022-08-17T04:29:58.515Z,3.83
2022-08-17T04:32:25.215Z,3.33
2022-08-17T04:35:11.701Z,4.15
2022-08-17T04:37:38.241Z,3.67
2022-08-17T04:40:34.199Z,4.05
2022-08-17T04:43:07.232Z,3.92
2022-08-17T04:45:34.246Z,5.03
2022-08-17T04:48:01.379Z,5.13
2022-08-17T04:50:27.983Z,4.68
2022-08-17T04:52:54.694Z,4.78
2022-08-17T04:55:21.662Z,5.32
2022-08-17T04:57:48.295Z,4.68
2022-08-17T05:00:15.127Z,4.30
2022-08-17T05:03:00.467Z,5.38
2022-08-17T05:05:30.448Z,5.00
2022-08-17T05:08:01.629Z,4.63
2022-08-17T05:10:30.999Z,5.97
2022-08-17T05:13:15.479Z,4.72
2022-08-17T05:15:44.832Z,5.25
2022-08-17T05:18:12.163Z,6.00
2022-08-17T05:20:40.521Z,4.57
2022-08-17T05:25:40.365Z,5.45
2022-08-17T05:28:07.574Z,4.80
2022-08-17T05:30:35.770Z,5.43
2022-08-17T05:33:06.195Z,5.63
2022-08-17T05:35:36.194Z,4.72
2022-08-17T05:38:02.844Z,4.43
2022-08-17T05:40:32.674Z,4.95
2022-08-17T05:43:12.214Z,4.70
2022-08-17T05:46:07.949Z,3.97
2022-08-17T05:48:42.515Z,4.35
2022-08-17T05:51:15.088Z,4.05
2022-08-17T05:54:15.918Z,4.50
2022-08-17T05:56:51.388Z,3.95
2022-08-17T05:59:28.929Z,3.85
2022-08-17T06:02:17.156Z,3.95
2022-08-17T06:05:40.942Z,4.78
2022-08-17T06:08:22.280Z,3.47
2022-08-17T06:11:20.476Z,3.67
2022-08-17T06:14:17.879Z,4.32
2022-08-17T06:16:50.389Z,3.55
2022-08-17T06:19:27.809Z,3.97
2022-08-17T06:21:55.084Z,4.00
2022-08-17T06:24:39.142Z,3.25
2022-08-17T06:27:43.678Z,3.65
2022-08-17T06:30:20.240Z,3.20
2022-08-17T06:32:49.346Z,3.60
2022-08-17T06:35:34.051Z,3.30
2022-08-17T06:38:37.584Z,4.20
2022-08-17T06:41:22.387Z,3.22
2022-08-17T06:44:43.597Z,4.50
2022-08-17T06:47:13.507Z,3.28
2022-08-17T06:49:55.293Z,3.53
2022-08-17T06:52:45.571Z,3.78
2022-08-17T06:55:26.263Z,3.67
2022-08-17T06:57:58.583Z,3.90
2022-08-17T07:00:33.521Z,3.30
2022-08-17T07:03:09.911Z,3.38
2022-08-17T07:05:44.474Z,3.45
2022-08-17T07:08:19.779Z,4.13
2022-08-17T07:10:54.741Z,3.30
2022-08-17T07:14:03.628Z,2.83
2022-08-17T07:16:41.158Z,3.00
2022-08-17T07:21:47.037Z,3.42
2022-08-17T07:24:30.201Z,3.70
2022-08-17T07:27:21.219Z,3.60
2022-08-17T07:29:56.641Z,2.97
2022-08-17T07:32:31.542Z,3.85
2022-08-17T07:35:16.656Z,2.88
2022-08-17T07:37:53.057Z,2.60
2022-08-17T07:40:35.697Z,3.08
2022-08-17T07:43:08.058Z,3.25
2022-08-17T07:46:32.758Z,3.50
2022-08-17T07:49:08.038Z,3.30
2022-08-17T07:51:57.631Z,3.30
2022-08-17T07:54:40.863Z,4.15
2022-08-17T07:57:13.347Z,3.53
2022-08-17T07:59:43.394Z,3.08
2022-08-17T08:02:33.887Z,2.90
2022-08-17T08:05:14.541Z,3.35
2022-08-17T08:08:05.855Z,2.40
2022-08-17T08:10:38.896Z,2.92
2022-08-17T08:13:14.084Z,2.30
2022-08-17T08:15:54.202Z,2.92
2022-08-17T08:18:39.682Z,2.35
2022-08-17T08:21:53.570Z,2.55
2022-08-17T08:24:32.732Z,2.17
2022-08-17T08:27:19.714Z,2.40
2022-08-17T08:30:22.686Z,2.30
2022-08-17T08:33:17.580Z,2.30
2022-08-17T08:35:54.994Z,1.95
2022-08-17T08:41:58.836Z,2.35
2022-08-17T08:45:01.151Z,2.35
2022-08-17T08:47:43.796Z,2.53
2022-08-17T08:50:37.485Z,2.58
2022-08-17T08:53:16.401Z,2.30
2022-08-17T08:56:11.998Z,3.10
2022-08-17T08:58:50.683Z,2.67
2022-08-17T09:01:43.491Z,2.08
2022-08-17T09:05:12.956Z,2.33
2022-08-17T09:07:48.341Z,2.70
2022-08-17T09:10:27.122Z,2.95
2022-08-17T09:13:46.319Z,2.45
2022-08-17T09:16:45.604Z,2.42
2022-08-17T09:19:30.379Z,2.58
2022-08-17T09:22:24.081Z,2.50
2022-08-17T09:25:12.533Z,2.72
2022-08-17T09:28:16.771Z,3.05
2022-08-17T09:30:50.704Z,2.70
2022-08-17T09:33:22.992Z,2.38
2022-08-17T09:35:57.110Z,2.92
2022-08-17T09:38:32.631Z,2.60
2022-08-17T09:41:18.605Z,3.10
2022-08-17T09:43:51.054Z,3.05
2022-08-17T09:46:29.252Z,2.38
2022-08-17T09:49:25.141Z,2.58
2022-08-17T09:52:26.357Z,2.80
2022-08-17T09:54:55.693Z,3.38
2022-08-17T09:57:55.982Z,2.70
2022-08-17T10:00:29.266Z,2.42
2022-08-17T10:03:11.803Z,3.25
2022-08-17T10:05:47.242Z,2.88
2022-08-17T10:08:22.818Z,2.90
2022-08-17T10:11:18.971Z,2.20
2022-08-17T10:13:56.048Z,2.92
2022-08-17T10:16:28.953Z,2.58
2022-08-17T10:19:35.855Z,3.83
2022-08-17T10:25:26.102Z,3.28
2022-08-17T10:28:06.476Z,2.50
2022-08-17T10:30:44.366Z,2.50
2022-08-17T10:33:24.539Z,3.05
2022-08-17T10:36:10.857Z,2.75
2022-08-17T10:38:46.953Z,2.83
2022-08-17T10:41:33.174Z,3.20
2022-08-17T10:44:39.095Z,3.35
2022-08-17T10:47:08.106Z,3.33
2022-08-17T10:49:47.397Z,2.80
2022-08-17T10:52:19.708Z,3.22
2022-08-17T10:55:14.985Z,3.50
2022-08-17T10:57:44.851Z,2.55
2022-08-17T11:00:35.083Z,3.03
2022-08-17T11:03:02.443Z,3.35
2022-08-17T11:05:41.501Z,3.78
2022-08-17T11:08:25.285Z,3.30
2022-08-17T11:11:08.734Z,3.08
2022-08-17T11:14:04.589Z,4.22
2022-08-17T11:16:49.744Z,3.95
2022-08-17T11:19:38.221Z,3.72
2022-08-17T11:22:10.535Z,3.03
2022-08-17T11:24:48.065Z,3.35
2022-08-17T11:30:08.740Z,3.70
2022-08-17T11:32:48.818Z,3.53
2022-08-17T11:35:21.064Z,3.53
2022-08-17T11:38:16.132Z,4.22
2022-08-17T11:41:13.414Z,4.18
2022-08-17T11:44:02.062Z,3.80
2022-08-17T11:46:56.821Z,4.13
2022-08-17T11:50:16.883Z,4.00
2022-08-17T11:52:49.333Z,3.72
2022-08-17T11:55:40.730Z,3.83
2022-08-17T11:58:29.429Z,3.70
2022-08-17T12:01:06.890Z,3.65
2022-08-17T12:03:33.555Z,3.95
2022-08-17T12:06:19.849Z,4.32
2022-08-17T12:08:58.310Z,3.15
2022-08-17T12:12:12.182Z,3.72
2022-08-17T12:15:09.030Z,3.33
2022-08-17T12:17:41.163Z,3.30
2022-08-17T12:20:29.613Z,3.80
2022-08-17T12:23:20.205Z,3.97
2022-08-17T12:26:04.647Z,3.60
2022-08-17T12:28:35.579Z,3.67
2022-08-17T12:31:17.881Z,3.83
2022-08-17T12:33:46.670Z,3.28
2022-08-17T12:36:15.922Z,3.70
2022-08-17T12:38:51.231Z,4.55
2022-08-17T12:41:52.055Z,3.85
2022-08-17T12:44:24.511Z,4.50
2022-08-17T12:46:53.245Z,3.67
2022-08-17T12:49:25.162Z,4.05
2022-08-17T12:51:59.927Z,3.97
2022-08-17T12:54:37.730Z,4.05
2022-08-17T12:57:12.596Z,3.55
2022-08-17T12:59:46.177Z,4.10
2022-08-17T13:02:41.423Z,3.53
2022-08-17T13:05:17.866Z,3.30
2022-08-17T13:07:46.602Z,3.88
2022-08-17T13:10:21.862Z,4.50
2022-08-17T13:12:50.998Z,4.60
2022-08-17T13:15:29.489Z,3.70
2022-08-17T13:18:04.927Z,3.75
2022-08-17T13:20:33.090Z,3.95
2022-08-17T13:23:11.448Z,3.53
2022-08-17T13:25:38.962Z,4.15
2022-08-17T13:28:05.522Z,3.47
2022-08-17T13:30:33.328Z,3.92
2022-08-17T13:35:49.947Z,4.00
2022-08-17T13:38:39.378Z,4.28
2022-08-17T13:41:07.463Z,4.13
2022-08-17T13:43:45.452Z,4.22
2022-08-17T13:46:21.571Z,3.97
2022-08-17T13:49:02.292Z,3.88
2022-08-17T13:51:33.010Z,3.97
2022-08-17T13:54:02.548Z,4.20
2022-08-17T13:57:04.691Z,4.15
2022-08-17T13:59:54.945Z,3.55
2022-08-17T14:02:28.271Z,3.30
2022-08-17T14:04:56.243Z,4.30
2022-08-17T14:07:33.896Z,3.92
2022-08-17T14:10:09.661Z,3.67
2022-08-17T14:12:39.876Z,3.33
2022-08-17T14:15:07.831Z,4.05
2022-08-17T14:17:38.705Z,4.25
2022-08-17T14:20:09.532Z,4.20
2022-08-17T14:22:39.302Z,3.83
2022-08-17T14:25:10.259Z,4.63
2022-08-17T14:27:43.594Z,4.25
2022-08-17T14:30:25.181Z,3.92
2022-08-17T14:32:52.384Z,4.30
2022-08-17T14:35:22.560Z,3.97
2022-08-17T14:37:50.348Z,3.75
2022-08-17T14:40:20.677Z,3.75
2022-08-17T14:42:48.060Z,3.17
2022-08-17T14:45:31.596Z,3.20
2022-08-17T14:48:00.754Z,2.97
2022-08-17T14:50:27.292Z,3.67
2022-08-17T14:52:56.016Z,3.85
2022-08-17T14:55:24.977Z,3.42
2022-08-17T14:57:51.766Z,3.63
2022-08-17T15:00:18.567Z,4.37
2022-08-17T15:02:55.115Z,3.67
2022-08-17T15:05:24.758Z,3.58
2022-08-17T15:07:52.699Z,3.40
2022-08-17T15:10:20.178Z,3.28
2022-08-17T15:12:46.817Z,3.17
2022-08-17T15:15:16.037Z,3.45
2022-08-17T15:17:45.984Z,3.38
2022-08-17T15:20:19.072Z,4.10
2022-08-17T15:22:49.619Z,3.05
2022-08-17T15:25:19.058Z,3.95
2022-08-17T15:27:46.156Z,3.58
2022-08-17T15:30:13.072Z,3.83
2022-08-17T15:32:51.448Z,2.92
2022-08-17T15:35:27.727Z,6.05
2022-08-17T15:38:04.555Z,3.88
2022-08-17T15:40:37.181Z,4.32
2022-08-17T15:43:05.876Z,3.63
2022-08-17T15:45:33.485Z,4.25
2022-08-17T15:48:00.515Z,3.42
2022-08-17T15:50:27.077Z,3.53
2022-08-17T15:52:59.248Z,3.22
2022-08-17T15:55:32.469Z,2.80
2022-08-17T15:57:59.169Z,3.13
2022-08-17T16:00:26.777Z,3.13
2022-08-17T16:03:45.452Z,4.05
2022-08-17T16:05:41.375Z,3.42
2022-08-17T16:08:08.218Z,3.17
2022-08-17T16:10:36.076Z,3.22
2022-08-17T16:13:04.340Z,3.00
2022-08-17T16:15:31.915Z,2.88
2022-08-17T16:17:59.170Z,3.55
2022-08-17T16:20:25.980Z,3.70
2022-08-17T16:22:54.213Z,3.33
2022-08-17T16:25:49.226Z,3.65
2022-08-17T16:28:13.026Z,3.58
2022-08-17T16:30:39.832Z,4.22
2022-08-17T16:33:06.450Z,4.00
2022-08-17T16:35:33.280Z,3.95
2022-08-17T16:37:59.885Z,4.22
2022-08-17T16:40:29.778Z,4.22
2022-08-17T16:42:59.608Z,3.50
2022-08-17T16:45:28.750Z,4.88
2022-08-17T16:47:59.054Z,4.10
2022-08-17T16:50:26.084Z,3.75
2022-08-17T16:52:52.854Z,4.00
2022-08-17T16:55:22.158Z,3.30
2022-08-17T16:57:50.186Z,3.80
2022-08-17T17:00:19.163Z,3.55
2022-08-17T17:02:47.790Z,3.53
2022-08-17T17:05:36.506Z,3.60
2022-08-17T17:08:14.073Z,3.80
2022-08-17T17:10:45.946Z,4.18
2022-08-17T17:13:29.655Z,3.75
2022-08-17T17:16:41.393Z,4.13
2022-08-17T17:19:34.535Z,3.58
2022-08-17T17:22:23.017Z,3.70
2022-08-17T17:24:58.614Z,3.67
2022-08-17T17:27:43.623Z,3.72
2022-08-17T17:30:36.049Z,3.75
2022-08-17T17:33:19.129Z,3.70
2022-08-17T17:36:08.082Z,4.68
2022-08-17T17:38:52.800Z,4.18
2022-08-17T17:41:28.953Z,3.45
2022-08-17T17:44:05.042Z,3.90
2022-08-17T17:46:38.162Z,3.75
2022-08-17T17:49:06.188Z,4.72
2022-08-17T17:54:47.199Z,2.67
2022-08-17T17:57:58.041Z,4.13
2022-08-17T18:00:37.979Z,3.22
2022-08-17T18:03:25.574Z,2.22
2022-08-17T18:06:02.319Z,4.55
2022-08-17T18:08:34.391Z,3.78
2022-08-17T18:11:25.389Z,3.22
2022-08-17T18:14:19.718Z,4.07
2022-08-17T18:16:47.500Z,3.13
2022-08-17T18:19:20.026Z,3.10
2022-08-17T18:21:54.713Z,2.72
2022-08-17T18:24:33.449Z,3.97
2022-08-17T18:27:08.697Z,2.70
2022-08-17T18:29:43.190Z,2.50
2022-08-17T18:32:12.676Z,2.63
2022-08-17T18:34:48.510Z,2.50
2022-08-17T18:37:40.384Z,2.05
2022-08-17T18:40:23.286Z,2.10
2022-08-17T18:43:27.310Z,2.72
2022-08-17T18:45:57.094Z,2.15
2022-08-17T18:48:48.795Z,2.65
2022-08-17T18:51:39.762Z,2.90
2022-08-17T18:54:24.169Z,2.75
2022-08-17T18:56:56.830Z,2.97
2022-08-17T18:59:43.765Z,3.00
2022-08-17T19:02:23.198Z,2.70
2022-08-17T19:05:24.521Z,2.95
2022-08-17T19:07:55.134Z,3.00
2022-08-17T19:10:21.731Z,3.30
2022-08-17T19:13:12.725Z,3.15
2022-08-17T19:16:11.695Z,3.10
2022-08-17T19:18:43.800Z,4.40
2022-08-17T19:21:16.804Z,3.15
2022-08-17T19:23:55.785Z,2.22
2022-08-17T19:26:54.052Z,1.98
2022-08-17T19:29:25.668Z,2.67
2022-08-17T19:31:55.170Z,2.10
2022-08-17T19:34:30.162Z,2.50
2022-08-17T19:37:06.948Z,2.03
2022-08-17T19:39:43.718Z,2.35
2022-08-17T19:42:29.534Z,2.47
2022-08-17T19:45:34.459Z,2.05
2022-08-17T19:48:16.709Z,2.60
2022-08-17T19:50:57.941Z,2.20
2022-08-17T19:53:47.825Z,3.20
2022-08-17T19:57:01.702Z,2.08
2022-08-17T19:59:48.679Z,1.75
2022-08-17T20:02:30.370Z,2.45
2022-08-17T20:05:02.176Z,2.58
2022-08-17T20:07:45.587Z,2.33
2022-08-17T20:10:20.666Z,3.05
2022-08-17T20:12:51.456Z,2.00
2022-08-17T20:15:27.870Z,2.35
2022-08-17T20:18:00.081Z,2.63
2022-08-17T20:20:29.749Z,2.45
2022-08-17T20:23:14.877Z,2.53
2022-08-17T20:25:57.637Z,1.95
2022-08-17T20:28:28.762Z,2.80
2022-08-17T20:30:56.229Z,2.97
2022-08-17T20:33:25.138Z,1.92
2022-08-17T20:36:11.152Z,2.25
2022-08-17T20:38:43.953Z,3.50
2022-08-17T20:41:20.938Z,2.42
2022-08-17T20:44:01.239Z,2.55
2022-08-17T20:46:39.453Z,2.38
2022-08-17T20:52:01.237Z,2.50
2022-08-17T20:54:47.878Z,2.90
2022-08-17T20:57:50.658Z,3.15
2022-08-17T21:00:56.376Z,2.63
2022-08-17T21:03:23.472Z,3.22
2022-08-17T21:06:00.117Z,2.95
2022-08-17T21:08:43.730Z,3.08
2022-08-17T21:12:02.536Z,3.67
2022-08-17T21:14:56.249Z,4.00
2022-08-17T21:17:31.944Z,3.13
2022-08-17T21:20:11.006Z,3.50
2022-08-17T21:22:53.474Z,3.78
2022-08-17T21:25:32.490Z,3.80
2022-08-17T21:28:08.216Z,3.88
2022-08-17T21:30:37.129Z,4.13
2022-08-17T21:33:26.989Z,3.55
2022-08-17T21:36:11.503Z,4.10
2022-08-17T21:38:40.842Z,3.78
2022-08-17T21:41:27.326Z,3.38
2022-08-17T21:44:11.360Z,3.28
2022-08-17T21:46:42.870Z,3.83
2022-08-17T21:49:16.800Z,4.18
2022-08-17T21:51:57.518Z,4.20
2022-08-17T21:55:12.988Z,4.10
2022-08-17T21:57:53.107Z,3.42
2022-08-17T22:00:33.338Z,4.65
2022-08-17T22:03:03.415Z,3.85
2022-08-17T22:05:32.801Z,4.15
2022-08-17T22:08:03.391Z,4.35
2022-08-17T22:10:42.394Z,4.07
2022-08-17T22:13:21.431Z,5.38
2022-08-17T22:15:49.826Z,5.28
2022-08-17T22:20:57.320Z,4.72
2022-08-17T22:23:53.468Z,4.53
2022-08-17T22:26:23.601Z,5.57
2022-08-17T22:28:53.571Z,3.85
2022-08-17T22:31:23.291Z,4.65
2022-08-17T22:34:07.461Z,4.50
2022-08-17T22:36:36.203Z,4.07
2022-08-17T22:39:08.837Z,5.28
2022-08-17T22:41:43.675Z,3.80
2022-08-17T22:44:17.210Z,4.07
2022-08-17T22:46:58.905Z,3.85
2022-08-17T22:49:38.499Z,4.45
2022-08-17T22:52:33.950Z,4.63
2022-08-17T22:55:24.265Z,4.47
2022-08-17T22:58:09.795Z,3.70
2022-08-17T23:00:40.884Z,8.63
2022-08-17T23:03:13.732Z,4.28
2022-08-17T23:05:44.852Z,5.63
2022-08-17T23:08:13.489Z,3.95
2022-08-17T23:10:41.734Z,3.63
2022-08-17T23:13:11.845Z,3.67
2022-08-17T23:15:40.322Z,4.22
2022-08-17T23:20:39.075Z,4.22
2022-08-17T23:23:07.688Z,5.00
2022-08-17T23:25:35.204Z,3.83
2022-08-17T23:28:06.837Z,4.78
2022-08-17T23:30:40.951Z,5.20
2022-08-17T23:33:14.250Z,4.25
2022-08-17T23:35:41.191Z,4.40
2022-08-17T23:38:12.975Z,5.07
2022-08-17T23:40:40.588Z,4.70
2022-08-17T23:43:24.878Z,4.10
2022-08-17T23:45:57.380Z,3.88
2022-08-17T23:48:36.132Z,4.63
2022-08-17T23:51:14.087Z,5.00
2022-08-17T23:53:48.175Z,5.28
2022-08-17T23:56:15.512Z,4.93
2022-08-17T23:58:43.649Z,5.32
